sensor_id;sensor_type;location;lat;lon;timestamp;pressure;altitude;pressure_sealevel;temperature;humidity
67740;BME280;54536;50.090;14.420;2023-04-01T00:01:13;97783.13;;;12.65;57.63
67740;BME280;54536;50.090;14.420;2023-04-01T00:03:39;97775.69;;;12.54;57.96
67740;BME280;54536;50.090;14.420;2023-04-01T00:06:06;97782.50;;;12.63;57.71
67740;BME280;54536;50.090;14.420;2023-04-01T00:08:32;97779.09;;;12.70;57.74
67740;BME280;54536;50.090;14.420;2023-04-01T00:10:58;97772.31;;;12.60;57.03
67740;BME280;54536;50.090;14.420;2023-04-01T00:13:26;97778.22;;;12.62;57.02
67740;BME280;54536;50.090;14.420;2023-04-01T00:15:54;97774.69;;;12.55;57.31
67740;BME280;54536;50.090;14.420;2023-04-01T00:18:20;97786.13;;;12.62;57.33
67740;BME280;54536;50.090;14.420;2023-04-01T00:20:48;97777.28;;;12.70;57.12
67740;BME280;54536;50.090;14.420;2023-04-01T00:23:16;97774.56;;;12.63;56.94
67740;BME280;54536;50.090;14.420;2023-04-01T00:25:44;97772.97;;;12.62;57.31
67740;BME280;54536;50.090;14.420;2023-04-01T00:28:14;97772.06;;;12.55;57.02
67740;BME280;54536;50.090;14.420;2023-04-01T00:30:40;97773.88;;;12.55;57.05
67740;BME280;54536;50.090;14.420;2023-04-01T00:33:06;97769.13;;;12.44;56.78
67740;BME280;54536;50.090;14.420;2023-04-01T00:35:33;97762.22;;;12.43;57.58
67740;BME280;54536;50.090;14.420;2023-04-01T00:37:59;97774.91;;;12.54;56.97
67740;BME280;54536;50.090;14.420;2023-04-01T00:40:35;97767.88;;;12.39;57.13
67740;BME280;54536;50.090;14.420;2023-04-01T00:43:05;97766.34;;;12.52;57.60
67740;BME280;54536;50.090;14.420;2023-04-01T00:45:38;97768.97;;;12.52;57.26
67740;BME280;54536;50.090;14.420;2023-04-01T00:48:14;97770.00;;;12.51;57.27
67740;BME280;54536;50.090;14.420;2023-04-01T00:50:48;97776.16;;;12.36;57.87
67740;BME280;54536;50.090;14.420;2023-04-01T00:53:18;97775.31;;;12.36;57.27
67740;BME280;54536;50.090;14.420;2023-04-01T00:55:56;97767.59;;;12.34;57.42
67740;BME280;54536;50.090;14.420;2023-04-01T00:58:29;97777.00;;;12.22;58.04
67740;BME280;54536;50.090;14.420;2023-04-01T01:00:59;97771.13;;;12.20;57.92
67740;BME280;54536;50.090;14.420;2023-04-01T01:03:28;97760.22;;;12.23;58.57
67740;BME280;54536;50.090;14.420;2023-04-01T01:09:08;97772.16;;;12.26;57.85
67740;BME280;54536;50.090;14.420;2023-04-01T01:11:44;97770.09;;;12.21;58.44
67740;BME280;54536;50.090;14.420;2023-04-01T01:17:13;97770.09;;;12.21;57.98
67740;BME280;54536;50.090;14.420;2023-04-01T01:22:35;97770.91;;;12.22;58.19
67740;BME280;54536;50.090;14.420;2023-04-01T01:27:38;97769.75;;;12.24;58.07
67740;BME280;54536;50.090;14.420;2023-04-01T01:33:58;97766.47;;;12.22;57.72
67740;BME280;54536;50.090;14.420;2023-04-01T01:36:19;97756.56;;;12.24;58.33
67740;BME280;54536;50.090;14.420;2023-04-01T01:38:48;97755.38;;;12.27;58.10
67740;BME280;54536;50.090;14.420;2023-04-01T01:41:18;97762.91;;;12.30;58.17
67740;BME280;54536;50.090;14.420;2023-04-01T01:43:49;97758.81;;;12.27;57.85
67740;BME280;54536;50.090;14.420;2023-04-01T01:46:22;97765.91;;;12.27;57.80
67740;BME280;54536;50.090;14.420;2023-04-01T01:48:52;97765.03;;;12.41;57.38
67740;BME280;54536;50.090;14.420;2023-04-01T01:51:21;97751.53;;;12.29;58.13
67740;BME280;54536;50.090;14.420;2023-04-01T01:53:48;97761.19;;;12.22;58.69
67740;BME280;54536;50.090;14.420;2023-04-01T01:56:18;97756.72;;;12.23;58.48
67740;BME280;54536;50.090;14.420;2023-04-01T01:58:51;97760.31;;;12.15;58.24
67740;BME280;54536;50.090;14.420;2023-04-01T02:01:25;97759.75;;;12.19;58.60
67740;BME280;54536;50.090;14.420;2023-04-01T02:03:55;97760.31;;;12.15;59.05
67740;BME280;54536;50.090;14.420;2023-04-01T02:06:28;97771.59;;;12.09;58.57
67740;BME280;54536;50.090;14.420;2023-04-01T02:09:04;97759.34;;;12.01;59.60
67740;BME280;54536;50.090;14.420;2023-04-01T02:11:56;97767.13;;;12.09;59.22
67740;BME280;54536;50.090;14.420;2023-04-01T02:14:27;97770.59;;;12.10;59.87
67740;BME280;54536;50.090;14.420;2023-04-01T02:16:58;97773.59;;;12.07;60.03
67740;BME280;54536;50.090;14.420;2023-04-01T02:22:54;97773.56;;;12.22;59.22
67740;BME280;54536;50.090;14.420;2023-04-01T02:25:32;97772.84;;;12.13;59.67
67740;BME280;54536;50.090;14.420;2023-04-01T02:28:04;97768.50;;;12.05;59.55
67740;BME280;54536;50.090;14.420;2023-04-01T02:30:34;97773.31;;;12.16;59.15
67740;BME280;54536;50.090;14.420;2023-04-01T02:33:03;97765.22;;;12.18;59.24
67740;BME280;54536;50.090;14.420;2023-04-01T02:35:33;97777.38;;;12.19;59.38
67740;BME280;54536;50.090;14.420;2023-04-01T02:38:01;97782.41;;;12.14;58.98
67740;BME280;54536;50.090;14.420;2023-04-01T02:40:27;97780.56;;;12.14;59.69
67740;BME280;54536;50.090;14.420;2023-04-01T02:42:53;97787.53;;;12.22;59.48
67740;BME280;54536;50.090;14.420;2023-04-01T02:45:19;97783.44;;;12.19;59.63
67740;BME280;54536;50.090;14.420;2023-04-01T02:47:46;97790.00;;;12.24;59.15
67740;BME280;54536;50.090;14.420;2023-04-01T02:50:12;97789.81;;;12.25;58.72
67740;BME280;54536;50.090;14.420;2023-04-01T02:52:38;97790.81;;;12.24;58.93
67740;BME280;54536;50.090;14.420;2023-04-01T02:55:05;97794.41;;;12.16;60.10
67740;BME280;54536;50.090;14.420;2023-04-01T02:57:32;97790.53;;;12.19;59.37
67740;BME280;54536;50.090;14.420;2023-04-01T02:59:58;97793.63;;;12.23;59.17
67740;BME280;54536;50.090;14.420;2023-04-01T03:02:24;97800.72;;;12.22;59.38
67740;BME280;54536;50.090;14.420;2023-04-01T03:04:50;97800.41;;;12.10;59.36
67740;BME280;54536;50.090;14.420;2023-04-01T03:07:17;97802.53;;;12.22;58.85
67740;BME280;54536;50.090;14.420;2023-04-01T03:09:43;97808.69;;;12.29;59.08
67740;BME280;54536;50.090;14.420;2023-04-01T03:12:09;97809.78;;;12.34;58.57
67740;BME280;54536;50.090;14.420;2023-04-01T03:14:35;97805.31;;;12.35;59.32
67740;BME280;54536;50.090;14.420;2023-04-01T03:17:01;97808.63;;;12.22;58.64
67740;BME280;54536;50.090;14.420;2023-04-01T03:19:27;97807.72;;;12.30;58.77
67740;BME280;54536;50.090;14.420;2023-04-01T03:21:54;97802.53;;;12.22;59.07
67740;BME280;54536;50.090;14.420;2023-04-01T03:24:20;97809.81;;;12.19;58.69
67740;BME280;54536;50.090;14.420;2023-04-01T03:26:46;97813.44;;;12.18;58.38
67740;BME280;54536;50.090;14.420;2023-04-01T03:29:12;97816.66;;;12.14;59.41
67740;BME280;54536;50.090;14.420;2023-04-01T03:31:41;97820.34;;;12.19;58.43
67740;BME280;54536;50.090;14.420;2023-04-01T03:34:08;97818.78;;;12.25;58.87
67740;BME280;54536;50.090;14.420;2023-04-01T03:36:35;97815.91;;;12.20;58.89
67740;BME280;54536;50.090;14.420;2023-04-01T03:39:00;97819.91;;;12.16;58.45
67740;BME280;54536;50.090;14.420;2023-04-01T03:41:27;97816.81;;;12.27;58.89
67740;BME280;54536;50.090;14.420;2023-04-01T03:43:53;97820.53;;;12.33;58.35
67740;BME280;54536;50.090;14.420;2023-04-01T03:46:20;97821.06;;;12.28;58.15
67740;BME280;54536;50.090;14.420;2023-04-01T03:48:46;97823.22;;;12.39;58.18
67740;BME280;54536;50.090;14.420;2023-04-01T03:51:12;97828.31;;;12.41;57.71
67740;BME280;54536;50.090;14.420;2023-04-01T03:53:38;97832.56;;;12.42;58.16
67740;BME280;54536;50.090;14.420;2023-04-01T03:56:06;97832.84;;;12.32;57.47
67740;BME280;54536;50.090;14.420;2023-04-01T03:58:33;97834.75;;;12.38;57.83
67740;BME280;54536;50.090;14.420;2023-04-01T04:01:00;97837.03;;;12.41;57.21
67740;BME280;54536;50.090;14.420;2023-04-01T04:03:26;97826.03;;;12.38;57.33
67740;BME280;54536;50.090;14.420;2023-04-01T04:05:53;97832.97;;;12.24;57.33
67740;BME280;54536;50.090;14.420;2023-04-01T04:08:19;97829.72;;;12.22;57.48
67740;BME280;54536;50.090;14.420;2023-04-01T04:10:47;97830.34;;;12.24;57.39
67740;BME280;54536;50.090;14.420;2023-04-01T04:13:14;97836.25;;;12.26;57.79
67740;BME280;54536;50.090;14.420;2023-04-01T04:15:40;97847.63;;;12.12;58.04
67740;BME280;54536;50.090;14.420;2023-04-01T04:18:06;97842.50;;;12.25;57.41
67740;BME280;54536;50.090;14.420;2023-04-01T04:20:32;97857.16;;;12.28;56.98
67740;BME280;54536;50.090;14.420;2023-04-01T04:22:59;97854.78;;;12.33;57.15
67740;BME280;54536;50.090;14.420;2023-04-01T04:25:26;97851.75;;;12.36;57.33
67740;BME280;54536;50.090;14.420;2023-04-01T04:27:52;97852.88;;;12.27;57.27
67740;BME280;54536;50.090;14.420;2023-04-01T04:30:18;97857.06;;;12.21;57.48
67740;BME280;54536;50.090;14.420;2023-04-01T04:32:44;97850.31;;;12.33;56.99
67740;BME280;54536;50.090;14.420;2023-04-01T04:35:11;97852.75;;;12.35;57.04
67740;BME280;54536;50.090;14.420;2023-04-01T04:37:37;97863.66;;;12.32;57.08
67740;BME280;54536;50.090;14.420;2023-04-01T04:40:03;97863.75;;;12.38;56.84
67740;BME280;54536;50.090;14.420;2023-04-01T04:42:29;97861.56;;;12.42;56.77
67740;BME280;54536;50.090;14.420;2023-04-01T04:44:55;97859.50;;;12.37;57.63
67740;BME280;54536;50.090;14.420;2023-04-01T04:47:21;97860.75;;;12.41;57.17
67740;BME280;54536;50.090;14.420;2023-04-01T04:49:48;97854.66;;;12.41;56.91
67740;BME280;54536;50.090;14.420;2023-04-01T04:52:14;97854.03;;;12.39;57.63
67740;BME280;54536;50.090;14.420;2023-04-01T04:54:40;97852.97;;;12.33;57.74
67740;BME280;54536;50.090;14.420;2023-04-01T04:57:06;97858.84;;;12.35;57.85
67740;BME280;54536;50.090;14.420;2023-04-01T04:59:33;97856.47;;;12.40;57.82
67740;BME280;54536;50.090;14.420;2023-04-01T05:01:59;97856.72;;;12.46;57.62
67740;BME280;54536;50.090;14.420;2023-04-01T05:04:25;97862.69;;;12.33;57.95
67740;BME280;54536;50.090;14.420;2023-04-01T05:06:51;97861.41;;;12.29;58.19
67740;BME280;54536;50.090;14.420;2023-04-01T05:09:17;97868.69;;;12.27;57.89
67740;BME280;54536;50.090;14.420;2023-04-01T05:11:43;97863.44;;;12.27;57.54
67740;BME280;54536;50.090;14.420;2023-04-01T05:14:17;97874.06;;;12.33;57.77
67740;BME280;54536;50.090;14.420;2023-04-01T05:16:43;97876.84;;;12.32;57.95
67740;BME280;54536;50.090;14.420;2023-04-01T05:19:10;97875.22;;;12.31;57.85
67740;BME280;54536;50.090;14.420;2023-04-01T05:21:36;97868.88;;;12.25;57.75
67740;BME280;54536;50.090;14.420;2023-04-01T05:24:02;97870.97;;;12.30;58.12
67740;BME280;54536;50.090;14.420;2023-04-01T05:26:28;97869.75;;;12.32;57.61
67740;BME280;54536;50.090;14.420;2023-04-01T05:28:54;97875.16;;;12.24;57.80
67740;BME280;54536;50.090;14.420;2023-04-01T05:31:20;97873.25;;;12.33;57.64
67740;BME280;54536;50.090;14.420;2023-04-01T05:33:47;97871.22;;;12.35;57.32
67740;BME280;54536;50.090;14.420;2023-04-01T05:36:15;97875.31;;;12.37;57.19
67740;BME280;54536;50.090;14.420;2023-04-01T05:38:42;97874.06;;;12.33;57.91
67740;BME280;54536;50.090;14.420;2023-04-01T05:41:09;97879.31;;;12.33;58.02
67740;BME280;54536;50.090;14.420;2023-04-01T05:43:36;97882.31;;;12.30;57.80
67740;BME280;54536;50.090;14.420;2023-04-01T05:46:02;97876.13;;;12.38;57.63
67740;BME280;54536;50.090;14.420;2023-04-01T05:48:29;97880.84;;;12.43;57.20
67740;BME280;54536;50.090;14.420;2023-04-01T05:50:55;97882.66;;;12.42;57.27
67740;BME280;54536;50.090;14.420;2023-04-01T05:53:21;97886.66;;;12.38;57.84
67740;BME280;54536;50.090;14.420;2023-04-01T05:55:48;97884.31;;;12.43;57.72
67740;BME280;54536;50.090;14.420;2023-04-01T05:58:14;97887.75;;;12.44;57.54
67740;BME280;54536;50.090;14.420;2023-04-01T06:00:40;97886.13;;;12.43;57.70
67740;BME280;54536;50.090;14.420;2023-04-01T06:03:06;97888.38;;;12.46;57.22
67740;BME280;54536;50.090;14.420;2023-04-01T06:05:43;97894.28;;;12.48;57.45
67740;BME280;54536;50.090;14.420;2023-04-01T06:08:17;97886.75;;;12.45;57.52
67740;BME280;54536;50.090;14.420;2023-04-01T06:19:50;97888.13;;;12.62;56.90
67740;BME280;54536;50.090;14.420;2023-04-01T06:25:36;97891.00;;;12.46;56.76
67740;BME280;54536;50.090;14.420;2023-04-01T06:36:53;97893.25;;;12.85;55.77
67740;BME280;54536;50.090;14.420;2023-04-01T06:58:21;97912.09;;;13.03;55.58
67740;BME280;54536;50.090;14.420;2023-04-01T07:00:53;97917.97;;;12.99;55.93
67740;BME280;54536;50.090;14.420;2023-04-01T07:05:47;97912.56;;;12.85;55.89
67740;BME280;54536;50.090;14.420;2023-04-01T07:08:37;97912.28;;;12.80;55.31
67740;BME280;54536;50.090;14.420;2023-04-01T07:11:10;97912.63;;;12.92;56.29
67740;BME280;54536;50.090;14.420;2023-04-01T07:13:51;97912.97;;;13.10;56.50
67740;BME280;54536;50.090;14.420;2023-04-01T07:16:34;97912.34;;;12.87;54.91
67740;BME280;54536;50.090;14.420;2023-04-01T07:21:56;97913.44;;;12.93;54.75
67740;BME280;54536;50.090;14.420;2023-04-01T07:24:29;97914.81;;;12.88;54.66
67740;BME280;54536;50.090;14.420;2023-04-01T07:26:58;97920.22;;;13.02;54.57
67740;BME280;54536;50.090;14.420;2023-04-01T07:29:26;97919.13;;;13.18;54.23
67740;BME280;54536;50.090;14.420;2023-04-01T07:45:42;97924.59;;;13.59;52.70
67740;BME280;54536;50.090;14.420;2023-04-01T07:48:35;97931.13;;;13.63;52.45
67740;BME280;54536;50.090;14.420;2023-04-01T07:51:17;97941.34;;;13.73;52.90
67740;BME280;54536;50.090;14.420;2023-04-01T07:56:23;97942.47;;;13.85;52.55
67740;BME280;54536;50.090;14.420;2023-04-01T08:05:22;97946.91;;;13.78;51.68
67740;BME280;54536;50.090;14.420;2023-04-01T08:16:41;97954.41;;;13.74;51.36
67740;BME280;54536;50.090;14.420;2023-04-01T08:22:15;97948.19;;;13.89;52.08
67740;BME280;54536;50.090;14.420;2023-04-01T08:24:47;97946.59;;;13.94;50.66
67740;BME280;54536;50.090;14.420;2023-04-01T08:27:22;97951.63;;;13.89;51.51
67740;BME280;54536;50.090;14.420;2023-04-01T08:30:19;97953.38;;;14.03;50.53
67740;BME280;54536;50.090;14.420;2023-04-01T08:32:58;97942.13;;;13.95;50.43
67740;BME280;54536;50.090;14.420;2023-04-01T08:35:54;97950.59;;;14.18;50.94
67740;BME280;54536;50.090;14.420;2023-04-01T08:38:32;97950.81;;;14.17;49.93
67740;BME280;54536;50.090;14.420;2023-04-01T08:57:38;97955.81;;;14.05;49.03
67740;BME280;54536;50.090;14.420;2023-04-01T09:00:30;97951.06;;;14.28;48.46
67740;BME280;54536;50.090;14.420;2023-04-01T09:08:28;97958.00;;;14.29;47.58
67740;BME280;54536;50.090;14.420;2023-04-01T09:11:17;97958.00;;;14.29;47.59
67740;BME280;54536;50.090;14.420;2023-04-01T09:14:03;97958.47;;;14.40;48.05
67740;BME280;54536;50.090;14.420;2023-04-01T09:25:15;97956.94;;;14.52;47.20
67740;BME280;54536;50.090;14.420;2023-04-01T09:27:56;97957.75;;;14.52;47.26
67740;BME280;54536;50.090;14.420;2023-04-01T09:36:07;97958.00;;;14.71;46.57
67740;BME280;54536;50.090;14.420;2023-04-01T09:41:42;97950.72;;;14.80;46.57
67740;BME280;54536;50.090;14.420;2023-04-01T09:44:34;97950.06;;;14.78;46.56
67740;BME280;54536;50.090;14.420;2023-04-01T09:47:16;97952.59;;;14.99;46.07
67740;BME280;54536;50.090;14.420;2023-04-01T09:52:56;97953.22;;;15.01;48.07
67740;BME280;54536;50.090;14.420;2023-04-01T10:01:31;97949.41;;;15.43;45.34
67740;BME280;54536;50.090;14.420;2023-04-01T10:20:59;97959.41;;;15.48;44.04
67740;BME280;54536;50.090;14.420;2023-04-01T10:45:32;97959.81;;;15.65;42.80
67740;BME280;54536;50.090;14.420;2023-04-01T10:51:04;97952.91;;;15.77;42.47
67740;BME280;54536;50.090;14.420;2023-04-01T10:53:54;97949.22;;;15.91;42.23
67740;BME280;54536;50.090;14.420;2023-04-01T11:30:29;97948.38;;;16.76;41.51
67740;BME280;54536;50.090;14.420;2023-04-01T11:36:07;97956.06;;;16.97;40.49
67740;BME280;54536;50.090;14.420;2023-04-01T11:44:53;97952.13;;;17.00;41.11
67740;BME280;54536;50.090;14.420;2023-04-01T11:47:44;97948.41;;;16.62;41.57
67740;BME280;54536;50.090;14.420;2023-04-01T11:56:24;97951.66;;;16.78;40.96
67740;BME280;54536;50.090;14.420;2023-04-01T11:59:24;97949.19;;;17.15;39.90
67740;BME280;54536;50.090;14.420;2023-04-01T12:02:40;97946.75;;;17.95;37.75
67740;BME280;54536;50.090;14.420;2023-04-01T12:04:58;97951.66;;;17.73;38.50
67740;BME280;54536;50.090;14.420;2023-04-01T12:11:05;97948.50;;;17.26;39.97
67740;BME280;54536;50.090;14.420;2023-04-01T12:13:52;97954.06;;;17.24;40.54
67740;BME280;54536;50.090;14.420;2023-04-01T12:19:17;97962.09;;;17.43;40.30
67740;BME280;54536;50.090;14.420;2023-04-01T12:25:11;97965.53;;;17.18;41.15
67740;BME280;54536;50.090;14.420;2023-04-01T12:27:46;97966.59;;;17.11;41.82
67740;BME280;54536;50.090;14.420;2023-04-01T12:38:44;97977.66;;;17.39;39.97
67740;BME280;54536;50.090;14.420;2023-04-01T12:47:33;97969.81;;;18.01;39.22
67740;BME280;54536;50.090;14.420;2023-04-01T12:55:45;97980.19;;;18.09;38.00
67740;BME280;54536;50.090;14.420;2023-04-01T12:58:23;97961.19;;;19.81;34.89
67740;BME280;54536;50.090;14.420;2023-04-01T13:10:19;97966.78;;;18.78;36.77
67740;BME280;54536;50.090;14.420;2023-04-01T13:15:52;97969.50;;;18.53;37.88
67740;BME280;54536;50.090;14.420;2023-04-01T13:24:17;97974.88;;;17.84;39.13
67740;BME280;54536;50.090;14.420;2023-04-01T13:27:16;97971.47;;;17.77;39.28
67740;BME280;54536;50.090;14.420;2023-04-01T13:32:48;97968.41;;;17.73;40.14
67740;BME280;54536;50.090;14.420;2023-04-01T13:35:19;97965.13;;;17.71;39.89
67740;BME280;54536;50.090;14.420;2023-04-01T13:43:14;97968.75;;;17.52;40.39
67740;BME280;54536;50.090;14.420;2023-04-01T14:05:42;97962.34;;;17.03;41.30
67740;BME280;54536;50.090;14.420;2023-04-01T14:11:31;97958.94;;;17.27;40.81
67740;BME280;54536;50.090;14.420;2023-04-01T14:45:59;97988.63;;;16.66;43.24
67740;BME280;54536;50.090;14.420;2023-04-01T14:51:16;97987.06;;;16.45;44.12
67740;BME280;54536;50.090;14.420;2023-04-01T14:54:08;97996.44;;;16.41;44.98
67740;BME280;54536;50.090;14.420;2023-04-01T14:59:40;97995.63;;;16.41;44.10
67740;BME280;54536;50.090;14.420;2023-04-01T15:05:26;97996.00;;;16.51;44.41
67740;BME280;54536;50.090;14.420;2023-04-01T15:08:20;97992.81;;;16.35;44.96
67740;BME280;54536;50.090;14.420;2023-04-01T15:13:34;97997.91;;;16.24;44.92
67740;BME280;54536;50.090;14.420;2023-04-01T15:24:27;98004.06;;;15.84;44.88
67740;BME280;54536;50.090;14.420;2023-04-01T15:43:56;98023.66;;;15.77;45.87
67740;BME280;54536;50.090;14.420;2023-04-01T15:46:41;98019.16;;;15.77;45.74
67740;BME280;54536;50.090;14.420;2023-04-01T15:52:01;98024.25;;;15.79;46.45
67740;BME280;54536;50.090;14.420;2023-04-01T15:54:48;98030.56;;;15.71;47.32
67740;BME280;54536;50.090;14.420;2023-04-01T15:57:37;98030.41;;;15.86;46.80
67740;BME280;54536;50.090;14.420;2023-04-01T16:03:08;98041.00;;;15.86;47.21
67740;BME280;54536;50.090;14.420;2023-04-01T16:21:55;98049.25;;;15.56;46.70
67740;BME280;54536;50.090;14.420;2023-04-01T16:29:46;98053.53;;;15.37;47.34
67740;BME280;54536;50.090;14.420;2023-04-01T16:32:37;98060.81;;;15.29;47.14
67740;BME280;54536;50.090;14.420;2023-04-01T16:38:24;98063.25;;;15.23;47.02
67740;BME280;54536;50.090;14.420;2023-04-01T16:43:53;98070.63;;;15.35;47.67
67740;BME280;54536;50.090;14.420;2023-04-01T16:46:40;98072.22;;;15.22;47.51
67740;BME280;54536;50.090;14.420;2023-04-01T16:49:27;98079.50;;;15.14;47.20
67740;BME280;54536;50.090;14.420;2023-04-01T16:52:14;98077.91;;;15.19;47.26
67740;BME280;54536;50.090;14.420;2023-04-01T16:54:59;98082.97;;;15.08;47.77
67740;BME280;54536;50.090;14.420;2023-04-01T17:00:22;98089.59;;;14.90;48.46
67740;BME280;54536;50.090;14.420;2023-04-01T17:03:18;98092.22;;;14.90;48.68
67740;BME280;54536;50.090;14.420;2023-04-01T17:06:16;98098.19;;;14.99;49.20
67740;BME280;54536;50.090;14.420;2023-04-01T17:09:09;98106.84;;;14.80;48.60
67740;BME280;54536;50.090;14.420;2023-04-01T17:14:38;98116.66;;;14.58;49.94
67740;BME280;54536;50.090;14.420;2023-04-01T17:17:27;98116.97;;;14.48;50.84
67740;BME280;54536;50.090;14.420;2023-04-01T17:31:38;98129.53;;;14.39;51.16
67740;BME280;54536;50.090;14.420;2023-04-01T17:34:24;98132.78;;;14.41;51.39
67740;BME280;54536;50.090;14.420;2023-04-01T17:48:03;98149.03;;;14.38;52.18
67740;BME280;54536;50.090;14.420;2023-04-01T17:53:33;98155.91;;;14.54;51.55
67740;BME280;54536;50.090;14.420;2023-04-01T17:56:17;98149.69;;;14.62;51.13
67740;BME280;54536;50.090;14.420;2023-04-01T17:59:47;98159.69;;;14.66;51.41
67740;BME280;54536;50.090;14.420;2023-04-01T18:04:37;98164.53;;;14.41;53.23
67740;BME280;54536;50.090;14.420;2023-04-01T18:13:36;98171.03;;;14.39;53.49
67740;BME280;54536;50.090;14.420;2023-04-01T18:21:47;98182.25;;;14.19;53.93
67740;BME280;54536;50.090;14.420;2023-04-01T18:24:24;98188.91;;;14.37;53.49
67740;BME280;54536;50.090;14.420;2023-04-01T18:38:13;98200.44;;;14.08;54.40
67740;BME280;54536;50.090;14.420;2023-04-01T18:44:03;98213.59;;;14.01;54.25
67740;BME280;54536;50.090;14.420;2023-04-01T18:52:08;98223.66;;;13.91;53.90
67740;BME280;54536;50.090;14.420;2023-04-01T19:00:26;98230.63;;;13.98;54.76
67740;BME280;54536;50.090;14.420;2023-04-01T19:03:11;98226.22;;;13.84;55.06
67740;BME280;54536;50.090;14.420;2023-04-01T19:05:45;98240.03;;;13.86;55.32
67740;BME280;54536;50.090;14.420;2023-04-01T19:08:35;98235.47;;;13.95;55.44
67740;BME280;54536;50.090;14.420;2023-04-01T19:21:56;98240.25;;;13.70;56.43
67740;BME280;54536;50.090;14.420;2023-04-01T19:32:58;98244.44;;;13.79;57.16
67740;BME280;54536;50.090;14.420;2023-04-01T19:51:25;98263.41;;;13.53;57.19
67740;BME280;54536;50.090;14.420;2023-04-01T19:56:48;98264.31;;;13.60;57.77
67740;BME280;54536;50.090;14.420;2023-04-01T20:02:31;98263.50;;;13.45;58.04
67740;BME280;54536;50.090;14.420;2023-04-01T20:05:16;98271.88;;;13.33;58.75
67740;BME280;54536;50.090;14.420;2023-04-01T20:11:01;98266.88;;;13.39;58.76
67740;BME280;54536;50.090;14.420;2023-04-01T20:16:14;98275.16;;;13.50;58.29
67740;BME280;54536;50.090;14.420;2023-04-01T20:18:45;98279.44;;;13.37;58.75
67740;BME280;54536;50.090;14.420;2023-04-01T20:21:36;98281.44;;;13.34;59.10
67740;BME280;54536;50.090;14.420;2023-04-01T20:24:31;98282.78;;;13.30;58.55
67740;BME280;54536;50.090;14.420;2023-04-01T20:27:20;98286.69;;;13.20;59.73
67740;BME280;54536;50.090;14.420;2023-04-01T20:36:06;98290.72;;;13.30;58.68
67740;BME280;54536;50.090;14.420;2023-04-01T20:44:38;98293.78;;;13.19;59.21
67740;BME280;54536;50.090;14.420;2023-04-01T21:01:34;98301.66;;;13.42;59.05
67740;BME280;54536;50.090;14.420;2023-04-01T21:06:50;98298.19;;;13.27;59.60
67740;BME280;54536;50.090;14.420;2023-04-01T21:09:37;98301.28;;;13.30;59.32
67740;BME280;54536;50.090;14.420;2023-04-01T21:12:26;98310.50;;;13.34;58.81
67740;BME280;54536;50.090;14.420;2023-04-01T21:23:28;98312.50;;;13.32;59.46
67740;BME280;54536;50.090;14.420;2023-04-01T21:26:19;98323.50;;;13.36;59.25
67740;BME280;54536;50.090;14.420;2023-04-01T21:52:02;98340.53;;;13.33;59.46
67740;BME280;54536;50.090;14.420;2023-04-01T22:06:08;98338.72;;;13.11;60.24
67740;BME280;54536;50.090;14.420;2023-04-01T22:09:01;98339.81;;;13.17;59.95
67740;BME280;54536;50.090;14.420;2023-04-01T22:14:37;98351.16;;;13.25;60.05
67740;BME280;54536;50.090;14.420;2023-04-01T22:17:22;98351.72;;;13.35;59.26
67740;BME280;54536;50.090;14.420;2023-04-01T22:21:09;98352.75;;;13.34;59.75
67740;BME280;54536;50.090;14.420;2023-04-01T22:23:31;98358.47;;;13.38;59.18
67740;BME280;54536;50.090;14.420;2023-04-01T22:32:23;98360.00;;;13.32;59.50
67740;BME280;54536;50.090;14.420;2023-04-01T22:38:37;98360.81;;;13.33;59.00
67740;BME280;54536;50.090;14.420;2023-04-01T22:41:23;98363.94;;;13.13;59.65
67740;BME280;54536;50.090;14.420;2023-04-01T22:43:56;98365.09;;;13.34;59.07
67740;BME280;54536;50.090;14.420;2023-04-01T22:47:16;98370.34;;;13.19;59.41
67740;BME280;54536;50.090;14.420;2023-04-01T22:49:47;98369.31;;;13.20;60.17
67740;BME280;54536;50.090;14.420;2023-04-01T22:52:35;98367.59;;;13.12;59.93
67740;BME280;54536;50.090;14.420;2023-04-01T22:55:23;98367.59;;;13.12;60.33
67740;BME280;54536;50.090;14.420;2023-04-01T22:58:04;98372.78;;;13.21;60.31
67740;BME280;54536;50.090;14.420;2023-04-01T23:00:47;98374.38;;;13.30;59.95
67740;BME280;54536;50.090;14.420;2023-04-01T23:03:23;98377.59;;;13.40;59.56
67740;BME280;54536;50.090;14.420;2023-04-01T23:05:59;98378.94;;;13.36;59.41
67740;BME280;54536;50.090;14.420;2023-04-01T23:11:55;98381.69;;;13.28;59.15
67740;BME280;54536;50.090;14.420;2023-04-01T23:17:09;98386.06;;;13.35;59.36
67740;BME280;54536;50.090;14.420;2023-04-01T23:19:49;98378.94;;;13.36;59.22
67740;BME280;54536;50.090;14.420;2023-04-01T23:22:27;98386.34;;;13.41;59.58
67740;BME280;54536;50.090;14.420;2023-04-01T23:35:56;98400.84;;;13.22;59.92
67740;BME280;54536;50.090;14.420;2023-04-01T23:38:40;98400.25;;;13.11;60.39
67740;BME280;54536;50.090;14.420;2023-04-01T23:41:28;98414.00;;;13.30;59.88
67740;BME280;54536;50.090;14.420;2023-04-01T23:46:33;98410.63;;;13.36;59.65
67740;BME280;54536;50.090;14.420;2023-04-01T23:49:02;98414.53;;;13.25;59.84
67740;BME280;54536;50.090;14.420;2023-04-01T23:51:38;98412.56;;;13.19;60.67
67740;BME280;54536;50.090;14.420;2023-04-01T23:54:24;98415.34;;;13.26;60.83
67740;BME280;54536;50.090;14.420;2023-04-01T23:56:56;98417.56;;;13.37;60.29
67740;BME280;54536;50.090;14.420;2023-04-01T23:59:28;98425.47;;;13.14;60.73
